sensor_id;sensor_type;location;lat;lon;timestamp;P1;durP1;ratioP1;P2;durP2;ratioP2
18726;SDS011;9492;51.888;5.186;2023-08-06T00:02:17;6.97;;;2.97;;
18726;SDS011;9492;51.888;5.186;2023-08-06T00:04:43;3.03;;;2.57;;
18726;SDS011;9492;51.888;5.186;2023-08-06T00:07:09;2.57;;;2.37;;
18726;SDS011;9492;51.888;5.186;2023-08-06T00:09:35;6.67;;;2.90;;
18726;SDS011;9492;51.888;5.186;2023-08-06T00:12:01;4.57;;;3.10;;
18726;SDS011;9492;51.888;5.186;2023-08-06T00:14:27;3.83;;;3.23;;
18726;SDS011;9492;51.888;5.186;2023-08-06T00:16:53;4.87;;;3.33;;
18726;SDS011;9492;51.888;5.186;2023-08-06T00:19:19;2.70;;;2.50;;
18726;SDS011;9492;51.888;5.186;2023-08-06T00:21:45;3.80;;;3.13;;
18726;SDS011;9492;51.888;5.186;2023-08-06T00:24:11;3.67;;;2.80;;
18726;SDS011;9492;51.888;5.186;2023-08-06T00:26:40;3.57;;;3.03;;
18726;SDS011;9492;51.888;5.186;2023-08-06T00:29:06;3.37;;;2.90;;
18726;SDS011;9492;51.888;5.186;2023-08-06T00:31:31;2.87;;;2.67;;
18726;SDS011;9492;51.888;5.186;2023-08-06T00:33:57;4.90;;;3.17;;
18726;SDS011;9492;51.888;5.186;2023-08-06T00:36:23;2.47;;;2.27;;
18726;SDS011;9492;51.888;5.186;2023-08-06T00:38:49;11.43;;;3.60;;
18726;SDS011;9492;51.888;5.186;2023-08-06T00:41:15;3.90;;;2.60;;
18726;SDS011;9492;51.888;5.186;2023-08-06T00:43:41;2.90;;;2.67;;
18726;SDS011;9492;51.888;5.186;2023-08-06T00:46:07;3.30;;;2.80;;
18726;SDS011;9492;51.888;5.186;2023-08-06T00:48:33;2.80;;;2.60;;
18726;SDS011;9492;51.888;5.186;2023-08-06T00:51:00;2.67;;;2.40;;
18726;SDS011;9492;51.888;5.186;2023-08-06T00:53:26;3.77;;;3.10;;
18726;SDS011;9492;51.888;5.186;2023-08-06T00:55:52;3.90;;;2.80;;
18726;SDS011;9492;51.888;5.186;2023-08-06T00:58:19;3.17;;;2.83;;
18726;SDS011;9492;51.888;5.186;2023-08-06T01:00:45;3.23;;;2.80;;
18726;SDS011;9492;51.888;5.186;2023-08-06T01:03:11;3.23;;;2.70;;
18726;SDS011;9492;51.888;5.186;2023-08-06T01:05:40;3.33;;;2.77;;
18726;SDS011;9492;51.888;5.186;2023-08-06T01:08:11;4.33;;;2.83;;
18726;SDS011;9492;51.888;5.186;2023-08-06T01:15:43;7.27;;;3.30;;
18726;SDS011;9492;51.888;5.186;2023-08-06T01:18:10;3.07;;;2.53;;
18726;SDS011;9492;51.888;5.186;2023-08-06T01:20:36;4.30;;;2.87;;
18726;SDS011;9492;51.888;5.186;2023-08-06T01:23:02;3.20;;;2.80;;
18726;SDS011;9492;51.888;5.186;2023-08-06T01:25:33;3.47;;;3.07;;
18726;SDS011;9492;51.888;5.186;2023-08-06T01:28:03;3.63;;;3.10;;
18726;SDS011;9492;51.888;5.186;2023-08-06T01:30:32;3.13;;;2.63;;
18726;SDS011;9492;51.888;5.186;2023-08-06T01:33:03;4.00;;;2.93;;
18726;SDS011;9492;51.888;5.186;2023-08-06T01:35:31;4.43;;;2.90;;
18726;SDS011;9492;51.888;5.186;2023-08-06T01:37:58;3.67;;;2.67;;
18726;SDS011;9492;51.888;5.186;2023-08-06T01:40:25;3.00;;;2.50;;
18726;SDS011;9492;51.888;5.186;2023-08-06T01:42:53;2.80;;;2.53;;
18726;SDS011;9492;51.888;5.186;2023-08-06T01:45:19;4.47;;;2.67;;
18726;SDS011;9492;51.888;5.186;2023-08-06T01:47:45;2.93;;;2.60;;
18726;SDS011;9492;51.888;5.186;2023-08-06T01:50:11;3.47;;;2.10;;
18726;SDS011;9492;51.888;5.186;2023-08-06T01:52:37;3.13;;;2.83;;
18726;SDS011;9492;51.888;5.186;2023-08-06T01:55:03;3.00;;;2.73;;
18726;SDS011;9492;51.888;5.186;2023-08-06T01:57:29;3.53;;;3.23;;
18726;SDS011;9492;51.888;5.186;2023-08-06T01:59:55;5.63;;;2.87;;
18726;SDS011;9492;51.888;5.186;2023-08-06T02:02:21;3.30;;;3.00;;
18726;SDS011;9492;51.888;5.186;2023-08-06T02:04:47;3.13;;;2.80;;
18726;SDS011;9492;51.888;5.186;2023-08-06T02:07:13;4.00;;;3.43;;
18726;SDS011;9492;51.888;5.186;2023-08-06T02:09:39;3.07;;;2.87;;
18726;SDS011;9492;51.888;5.186;2023-08-06T02:12:05;4.27;;;3.57;;
18726;SDS011;9492;51.888;5.186;2023-08-06T02:14:32;4.17;;;3.37;;
18726;SDS011;9492;51.888;5.186;2023-08-06T02:16:58;3.47;;;3.10;;
18726;SDS011;9492;51.888;5.186;2023-08-06T02:19:24;4.60;;;3.40;;
18726;SDS011;9492;51.888;5.186;2023-08-06T02:21:50;3.37;;;3.00;;
18726;SDS011;9492;51.888;5.186;2023-08-06T02:24:17;3.13;;;2.77;;
18726;SDS011;9492;51.888;5.186;2023-08-06T02:26:43;3.03;;;2.73;;
18726;SDS011;9492;51.888;5.186;2023-08-06T02:29:09;3.13;;;2.67;;
18726;SDS011;9492;51.888;5.186;2023-08-06T02:31:35;3.57;;;2.80;;
18726;SDS011;9492;51.888;5.186;2023-08-06T02:34:01;3.97;;;2.90;;
18726;SDS011;9492;51.888;5.186;2023-08-06T02:36:27;4.10;;;2.97;;
18726;SDS011;9492;51.888;5.186;2023-08-06T02:38:54;2.87;;;2.57;;
18726;SDS011;9492;51.888;5.186;2023-08-06T02:41:20;3.37;;;3.07;;
18726;SDS011;9492;51.888;5.186;2023-08-06T02:43:46;3.37;;;2.90;;
18726;SDS011;9492;51.888;5.186;2023-08-06T02:46:12;3.50;;;3.00;;
18726;SDS011;9492;51.888;5.186;2023-08-06T02:48:38;3.33;;;3.03;;
18726;SDS011;9492;51.888;5.186;2023-08-06T02:51:04;5.33;;;3.57;;
18726;SDS011;9492;51.888;5.186;2023-08-06T02:53:30;5.03;;;3.50;;
18726;SDS011;9492;51.888;5.186;2023-08-06T02:55:56;3.63;;;3.20;;
18726;SDS011;9492;51.888;5.186;2023-08-06T02:58:23;3.37;;;3.07;;
18726;SDS011;9492;51.888;5.186;2023-08-06T03:01:00;3.87;;;3.30;;
18726;SDS011;9492;51.888;5.186;2023-08-06T03:03:26;3.70;;;3.40;;
18726;SDS011;9492;51.888;5.186;2023-08-06T03:05:53;3.10;;;2.90;;
18726;SDS011;9492;51.888;5.186;2023-08-06T03:08:19;3.40;;;3.10;;
18726;SDS011;9492;51.888;5.186;2023-08-06T03:10:48;3.30;;;3.00;;
18726;SDS011;9492;51.888;5.186;2023-08-06T03:13:14;4.67;;;3.47;;
18726;SDS011;9492;51.888;5.186;2023-08-06T03:15:40;3.53;;;3.23;;
18726;SDS011;9492;51.888;5.186;2023-08-06T03:18:06;3.93;;;3.53;;
18726;SDS011;9492;51.888;5.186;2023-08-06T03:20:32;4.40;;;3.40;;
18726;SDS011;9492;51.888;5.186;2023-08-06T03:22:58;5.60;;;3.57;;
18726;SDS011;9492;51.888;5.186;2023-08-06T03:25:24;4.67;;;3.37;;
18726;SDS011;9492;51.888;5.186;2023-08-06T03:27:50;3.90;;;3.50;;
18726;SDS011;9492;51.888;5.186;2023-08-06T03:30:16;4.27;;;3.87;;
18726;SDS011;9492;51.888;5.186;2023-08-06T03:32:42;4.40;;;4.00;;
18726;SDS011;9492;51.888;5.186;2023-08-06T03:35:08;4.63;;;3.57;;
18726;SDS011;9492;51.888;5.186;2023-08-06T03:37:34;4.33;;;3.90;;
18726;SDS011;9492;51.888;5.186;2023-08-06T03:40:00;5.40;;;3.87;;
18726;SDS011;9492;51.888;5.186;2023-08-06T03:42:26;4.20;;;3.80;;
18726;SDS011;9492;51.888;5.186;2023-08-06T03:44:52;4.80;;;4.03;;
18726;SDS011;9492;51.888;5.186;2023-08-06T03:47:18;3.80;;;3.50;;
18726;SDS011;9492;51.888;5.186;2023-08-06T03:49:44;4.43;;;4.03;;
18726;SDS011;9492;51.888;5.186;2023-08-06T03:52:10;4.73;;;4.23;;
18726;SDS011;9492;51.888;5.186;2023-08-06T03:54:36;4.53;;;4.00;;
18726;SDS011;9492;51.888;5.186;2023-08-06T03:57:02;5.13;;;4.20;;
18726;SDS011;9492;51.888;5.186;2023-08-06T03:59:28;4.20;;;3.87;;
18726;SDS011;9492;51.888;5.186;2023-08-06T04:01:54;5.43;;;4.57;;
18726;SDS011;9492;51.888;5.186;2023-08-06T04:04:20;4.67;;;4.03;;
18726;SDS011;9492;51.888;5.186;2023-08-06T04:06:46;5.23;;;4.83;;
18726;SDS011;9492;51.888;5.186;2023-08-06T04:09:12;5.20;;;4.70;;
18726;SDS011;9492;51.888;5.186;2023-08-06T04:11:38;4.67;;;4.27;;
18726;SDS011;9492;51.888;5.186;2023-08-06T04:14:04;5.03;;;4.63;;
18726;SDS011;9492;51.888;5.186;2023-08-06T04:16:30;5.27;;;4.77;;
18726;SDS011;9492;51.888;5.186;2023-08-06T04:18:56;5.20;;;4.70;;
18726;SDS011;9492;51.888;5.186;2023-08-06T04:21:23;5.10;;;4.60;;
18726;SDS011;9492;51.888;5.186;2023-08-06T04:23:49;5.37;;;4.47;;
18726;SDS011;9492;51.888;5.186;2023-08-06T04:26:15;4.80;;;4.40;;
18726;SDS011;9492;51.888;5.186;2023-08-06T04:28:41;6.10;;;4.67;;
18726;SDS011;9492;51.888;5.186;2023-08-06T04:31:07;5.10;;;4.20;;
18726;SDS011;9492;51.888;5.186;2023-08-06T04:33:33;6.30;;;4.77;;
18726;SDS011;9492;51.888;5.186;2023-08-06T04:35:59;6.13;;;4.70;;
18726;SDS011;9492;51.888;5.186;2023-08-06T04:38:26;5.03;;;4.53;;
18726;SDS011;9492;51.888;5.186;2023-08-06T04:40:52;4.60;;;4.20;;
18726;SDS011;9492;51.888;5.186;2023-08-06T04:43:18;5.20;;;4.70;;
18726;SDS011;9492;51.888;5.186;2023-08-06T04:45:48;5.43;;;4.87;;
18726;SDS011;9492;51.888;5.186;2023-08-06T04:48:15;5.57;;;5.07;;
18726;SDS011;9492;51.888;5.186;2023-08-06T04:50:44;6.03;;;5.43;;
18726;SDS011;9492;51.888;5.186;2023-08-06T04:53:10;6.17;;;5.13;;
18726;SDS011;9492;51.888;5.186;2023-08-06T04:55:36;6.27;;;5.67;;
18726;SDS011;9492;51.888;5.186;2023-08-06T04:58:02;6.70;;;5.50;;
18726;SDS011;9492;51.888;5.186;2023-08-06T05:00:28;4.93;;;4.43;;
18726;SDS011;9492;51.888;5.186;2023-08-06T05:02:54;5.67;;;4.97;;
18726;SDS011;9492;51.888;5.186;2023-08-06T05:05:20;5.97;;;4.83;;
18726;SDS011;9492;51.888;5.186;2023-08-06T05:07:48;5.10;;;4.60;;
18726;SDS011;9492;51.888;5.186;2023-08-06T05:10:14;4.87;;;4.30;;
18726;SDS011;9492;51.888;5.186;2023-08-06T05:12:40;5.20;;;4.70;;
18726;SDS011;9492;51.888;5.186;2023-08-06T05:15:06;5.23;;;4.53;;
18726;SDS011;9492;51.888;5.186;2023-08-06T05:17:32;5.43;;;4.93;;
18726;SDS011;9492;51.888;5.186;2023-08-06T05:19:59;5.20;;;4.70;;
18726;SDS011;9492;51.888;5.186;2023-08-06T05:22:25;5.03;;;4.63;;
18726;SDS011;9492;51.888;5.186;2023-08-06T05:24:51;4.87;;;4.43;;
18726;SDS011;9492;51.888;5.186;2023-08-06T05:27:17;4.53;;;4.13;;
18726;SDS011;9492;51.888;5.186;2023-08-06T05:29:44;5.77;;;5.13;;
18726;SDS011;9492;51.888;5.186;2023-08-06T05:32:10;5.20;;;4.70;;
18726;SDS011;9492;51.888;5.186;2023-08-06T05:34:36;5.10;;;4.53;;
18726;SDS011;9492;51.888;5.186;2023-08-06T05:37:03;5.53;;;5.03;;
18726;SDS011;9492;51.888;5.186;2023-08-06T05:39:29;5.77;;;5.20;;
18726;SDS011;9492;51.888;5.186;2023-08-06T05:41:55;6.03;;;5.47;;
18726;SDS011;9492;51.888;5.186;2023-08-06T05:44:21;6.60;;;4.77;;
18726;SDS011;9492;51.888;5.186;2023-08-06T05:46:49;5.70;;;5.20;;
18726;SDS011;9492;51.888;5.186;2023-08-06T05:49:15;6.37;;;5.77;;
18726;SDS011;9492;51.888;5.186;2023-08-06T05:51:41;6.43;;;5.77;;
18726;SDS011;9492;51.888;5.186;2023-08-06T05:54:07;7.00;;;5.60;;
18726;SDS011;9492;51.888;5.186;2023-08-06T05:56:33;6.00;;;5.40;;
18726;SDS011;9492;51.888;5.186;2023-08-06T05:58:59;6.30;;;5.57;;
18726;SDS011;9492;51.888;5.186;2023-08-06T06:01:25;5.90;;;5.23;;
18726;SDS011;9492;51.888;5.186;2023-08-06T06:03:51;6.57;;;5.87;;
18726;SDS011;9492;51.888;5.186;2023-08-06T06:06:17;6.30;;;5.50;;
18726;SDS011;9492;51.888;5.186;2023-08-06T06:08:44;6.90;;;5.80;;
18726;SDS011;9492;51.888;5.186;2023-08-06T06:11:10;6.33;;;5.50;;
18726;SDS011;9492;51.888;5.186;2023-08-06T06:13:36;7.37;;;5.13;;
18726;SDS011;9492;51.888;5.186;2023-08-06T06:16:02;6.93;;;6.23;;
18726;SDS011;9492;51.888;5.186;2023-08-06T06:18:28;6.20;;;5.60;;
18726;SDS011;9492;51.888;5.186;2023-08-06T06:20:54;6.27;;;5.13;;
18726;SDS011;9492;51.888;5.186;2023-08-06T06:23:20;4.97;;;4.40;;
18726;SDS011;9492;51.888;5.186;2023-08-06T06:25:49;3.67;;;2.93;;
18726;SDS011;9492;51.888;5.186;2023-08-06T06:28:17;3.07;;;2.80;;
18726;SDS011;9492;51.888;5.186;2023-08-06T06:30:43;0.93;;;0.93;;
18726;SDS011;9492;51.888;5.186;2023-08-06T06:33:09;0.50;;;0.50;;
18726;SDS011;9492;51.888;5.186;2023-08-06T06:35:35;0.87;;;0.70;;
18726;SDS011;9492;51.888;5.186;2023-08-06T06:38:01;0.80;;;0.53;;
18726;SDS011;9492;51.888;5.186;2023-08-06T06:40:27;0.70;;;0.70;;
18726;SDS011;9492;51.888;5.186;2023-08-06T06:42:53;0.67;;;0.67;;
18726;SDS011;9492;51.888;5.186;2023-08-06T06:45:19;0.50;;;0.50;;
18726;SDS011;9492;51.888;5.186;2023-08-06T06:47:45;0.83;;;0.80;;
18726;SDS011;9492;51.888;5.186;2023-08-06T06:50:11;0.80;;;0.80;;
18726;SDS011;9492;51.888;5.186;2023-08-06T06:52:37;0.90;;;0.90;;
18726;SDS011;9492;51.888;5.186;2023-08-06T06:55:04;1.47;;;0.97;;
18726;SDS011;9492;51.888;5.186;2023-08-06T06:57:30;0.90;;;0.90;;
18726;SDS011;9492;51.888;5.186;2023-08-06T06:59:56;1.47;;;1.10;;
18726;SDS011;9492;51.888;5.186;2023-08-06T07:02:22;1.43;;;1.00;;
18726;SDS011;9492;51.888;5.186;2023-08-06T07:04:49;0.90;;;0.90;;
18726;SDS011;9492;51.888;5.186;2023-08-06T07:07:15;0.77;;;0.77;;
18726;SDS011;9492;51.888;5.186;2023-08-06T07:09:41;1.47;;;1.07;;
18726;SDS011;9492;51.888;5.186;2023-08-06T07:12:07;3.60;;;1.47;;
18726;SDS011;9492;51.888;5.186;2023-08-06T07:14:33;1.40;;;1.30;;
18726;SDS011;9492;51.888;5.186;2023-08-06T07:16:59;2.67;;;1.83;;
18726;SDS011;9492;51.888;5.186;2023-08-06T07:19:25;1.73;;;1.63;;
18726;SDS011;9492;51.888;5.186;2023-08-06T07:21:51;2.83;;;1.70;;
18726;SDS011;9492;51.888;5.186;2023-08-06T07:24:17;2.00;;;1.90;;
18726;SDS011;9492;51.888;5.186;2023-08-06T07:26:43;2.17;;;1.97;;
18726;SDS011;9492;51.888;5.186;2023-08-06T07:29:09;2.67;;;2.00;;
18726;SDS011;9492;51.888;5.186;2023-08-06T07:31:35;2.30;;;2.10;;
18726;SDS011;9492;51.888;5.186;2023-08-06T07:34:01;2.37;;;2.20;;
18726;SDS011;9492;51.888;5.186;2023-08-06T07:36:27;2.43;;;2.23;;
18726;SDS011;9492;51.888;5.186;2023-08-06T07:38:53;2.40;;;2.20;;
18726;SDS011;9492;51.888;5.186;2023-08-06T07:41:24;2.57;;;2.17;;
18726;SDS011;9492;51.888;5.186;2023-08-06T07:43:50;2.80;;;2.57;;
18726;SDS011;9492;51.888;5.186;2023-08-06T07:46:16;2.90;;;2.70;;
18726;SDS011;9492;51.888;5.186;2023-08-06T07:48:42;3.43;;;2.60;;
18726;SDS011;9492;51.888;5.186;2023-08-06T07:51:08;3.70;;;2.67;;
18726;SDS011;9492;51.888;5.186;2023-08-06T07:53:35;5.37;;;2.90;;
18726;SDS011;9492;51.888;5.186;2023-08-06T07:56:01;3.10;;;2.80;;
18726;SDS011;9492;51.888;5.186;2023-08-06T07:58:27;5.00;;;3.03;;
18726;SDS011;9492;51.888;5.186;2023-08-06T08:00:54;6.13;;;2.63;;
18726;SDS011;9492;51.888;5.186;2023-08-06T08:03:20;3.13;;;2.83;;
18726;SDS011;9492;51.888;5.186;2023-08-06T08:05:47;6.40;;;3.00;;
18726;SDS011;9492;51.888;5.186;2023-08-06T08:08:13;3.93;;;2.60;;
18726;SDS011;9492;51.888;5.186;2023-08-06T08:10:39;3.40;;;3.03;;
18726;SDS011;9492;51.888;5.186;2023-08-06T08:13:05;4.07;;;2.63;;
18726;SDS011;9492;51.888;5.186;2023-08-06T08:15:31;2.87;;;2.10;;
18726;SDS011;9492;51.888;5.186;2023-08-06T08:17:57;3.47;;;2.67;;
18726;SDS011;9492;51.888;5.186;2023-08-06T08:20:23;4.80;;;2.73;;
18726;SDS011;9492;51.888;5.186;2023-08-06T08:22:49;2.77;;;2.10;;
18726;SDS011;9492;51.888;5.186;2023-08-06T08:25:16;4.10;;;2.40;;
18726;SDS011;9492;51.888;5.186;2023-08-06T08:27:42;4.23;;;1.80;;
18726;SDS011;9492;51.888;5.186;2023-08-06T08:30:08;4.23;;;2.40;;
18726;SDS011;9492;51.888;5.186;2023-08-06T08:32:34;3.17;;;2.00;;
18726;SDS011;9492;51.888;5.186;2023-08-06T08:35:00;3.30;;;2.03;;
18726;SDS011;9492;51.888;5.186;2023-08-06T08:37:26;3.40;;;1.87;;
18726;SDS011;9492;51.888;5.186;2023-08-06T08:39:52;2.37;;;1.90;;
18726;SDS011;9492;51.888;5.186;2023-08-06T08:42:18;2.60;;;1.87;;
18726;SDS011;9492;51.888;5.186;2023-08-06T08:44:44;3.17;;;1.60;;
18726;SDS011;9492;51.888;5.186;2023-08-06T08:47:10;3.67;;;1.80;;
18726;SDS011;9492;51.888;5.186;2023-08-06T08:49:36;2.90;;;1.93;;
18726;SDS011;9492;51.888;5.186;2023-08-06T08:52:03;3.43;;;1.70;;
18726;SDS011;9492;51.888;5.186;2023-08-06T08:54:35;5.77;;;1.87;;
18726;SDS011;9492;51.888;5.186;2023-08-06T08:57:03;1.70;;;1.40;;
18726;SDS011;9492;51.888;5.186;2023-08-06T08:59:29;1.57;;;1.37;;
18726;SDS011;9492;51.888;5.186;2023-08-06T09:01:55;4.07;;;2.07;;
18726;SDS011;9492;51.888;5.186;2023-08-06T09:04:22;2.03;;;1.53;;
18726;SDS011;9492;51.888;5.186;2023-08-06T09:06:51;1.57;;;1.47;;
18726;SDS011;9492;51.888;5.186;2023-08-06T09:09:25;2.83;;;1.60;;
18726;SDS011;9492;51.888;5.186;2023-08-06T09:11:52;5.90;;;1.40;;
18726;SDS011;9492;51.888;5.186;2023-08-06T09:14:18;3.03;;;1.90;;
18726;SDS011;9492;51.888;5.186;2023-08-06T09:16:44;1.57;;;1.37;;
18726;SDS011;9492;51.888;5.186;2023-08-06T09:19:10;3.33;;;1.40;;
18726;SDS011;9492;51.888;5.186;2023-08-06T09:21:41;1.63;;;1.50;;
18726;SDS011;9492;51.888;5.186;2023-08-06T09:24:08;2.53;;;1.40;;
18726;SDS011;9492;51.888;5.186;2023-08-06T09:26:34;1.90;;;1.70;;
18726;SDS011;9492;51.888;5.186;2023-08-06T09:29:00;2.03;;;1.50;;
18726;SDS011;9492;51.888;5.186;2023-08-06T09:31:48;4.83;;;2.00;;
18726;SDS011;9492;51.888;5.186;2023-08-06T09:34:19;2.30;;;1.40;;
18726;SDS011;9492;51.888;5.186;2023-08-06T09:36:48;2.97;;;1.73;;
18726;SDS011;9492;51.888;5.186;2023-08-06T09:39:16;1.60;;;1.27;;
18726;SDS011;9492;51.888;5.186;2023-08-06T09:41:43;3.97;;;1.30;;
18726;SDS011;9492;51.888;5.186;2023-08-06T09:44:15;3.70;;;1.80;;
18726;SDS011;9492;51.888;5.186;2023-08-06T09:46:41;2.70;;;1.40;;
18726;SDS011;9492;51.888;5.186;2023-08-06T09:49:07;3.53;;;1.30;;
18726;SDS011;9492;51.888;5.186;2023-08-06T09:51:35;4.30;;;1.70;;
18726;SDS011;9492;51.888;5.186;2023-08-06T09:54:04;1.77;;;1.40;;
18726;SDS011;9492;51.888;5.186;2023-08-06T09:56:31;1.30;;;1.20;;
18726;SDS011;9492;51.888;5.186;2023-08-06T09:59:02;4.13;;;1.50;;
18726;SDS011;9492;51.888;5.186;2023-08-06T10:01:31;2.17;;;1.00;;
18726;SDS011;9492;51.888;5.186;2023-08-06T10:03:57;1.87;;;1.20;;
18726;SDS011;9492;51.888;5.186;2023-08-06T10:06:23;1.33;;;1.10;;
18726;SDS011;9492;51.888;5.186;2023-08-06T10:08:49;1.60;;;1.40;;
18726;SDS011;9492;51.888;5.186;2023-08-06T10:11:15;1.97;;;1.40;;
18726;SDS011;9492;51.888;5.186;2023-08-06T10:13:42;1.97;;;1.30;;
18726;SDS011;9492;51.888;5.186;2023-08-06T10:16:09;1.53;;;1.00;;
18726;SDS011;9492;51.888;5.186;2023-08-06T10:18:36;1.73;;;1.00;;
18726;SDS011;9492;51.888;5.186;2023-08-06T10:21:04;1.40;;;1.03;;
18726;SDS011;9492;51.888;5.186;2023-08-06T10:23:33;2.27;;;1.20;;
18726;SDS011;9492;51.888;5.186;2023-08-06T10:26:00;2.90;;;1.47;;
18726;SDS011;9492;51.888;5.186;2023-08-06T10:28:37;1.97;;;1.17;;
18726;SDS011;9492;51.888;5.186;2023-08-06T10:31:03;5.60;;;1.70;;
18726;SDS011;9492;51.888;5.186;2023-08-06T10:36:10;3.03;;;1.60;;
18726;SDS011;9492;51.888;5.186;2023-08-06T10:38:49;1.30;;;1.20;;
18726;SDS011;9492;51.888;5.186;2023-08-06T10:41:36;3.00;;;1.30;;
18726;SDS011;9492;51.888;5.186;2023-08-06T10:44:05;2.93;;;1.50;;
18726;SDS011;9492;51.888;5.186;2023-08-06T10:46:33;1.03;;;0.90;;
18726;SDS011;9492;51.888;5.186;2023-08-06T10:48:59;2.67;;;1.77;;
18726;SDS011;9492;51.888;5.186;2023-08-06T10:51:25;2.37;;;1.40;;
18726;SDS011;9492;51.888;5.186;2023-08-06T10:53:52;2.37;;;1.33;;
18726;SDS011;9492;51.888;5.186;2023-08-06T10:56:19;1.80;;;1.17;;
18726;SDS011;9492;51.888;5.186;2023-08-06T10:58:47;2.13;;;1.20;;
18726;SDS011;9492;51.888;5.186;2023-08-06T11:01:13;1.63;;;1.27;;
18726;SDS011;9492;51.888;5.186;2023-08-06T11:03:40;4.50;;;2.27;;
18726;SDS011;9492;51.888;5.186;2023-08-06T11:06:07;12.77;;;1.50;;
18726;SDS011;9492;51.888;5.186;2023-08-06T11:08:34;2.00;;;1.23;;
18726;SDS011;9492;51.888;5.186;2023-08-06T11:11:08;2.47;;;1.40;;
18726;SDS011;9492;51.888;5.186;2023-08-06T11:13:35;2.93;;;1.50;;
18726;SDS011;9492;51.888;5.186;2023-08-06T11:16:01;2.53;;;1.37;;
18726;SDS011;9492;51.888;5.186;2023-08-06T11:18:28;2.53;;;1.27;;
18726;SDS011;9492;51.888;5.186;2023-08-06T11:20:54;1.67;;;1.27;;
18726;SDS011;9492;51.888;5.186;2023-08-06T11:23:20;1.97;;;1.30;;
18726;SDS011;9492;51.888;5.186;2023-08-06T11:25:46;1.97;;;1.63;;
18726;SDS011;9492;51.888;5.186;2023-08-06T11:28:12;3.67;;;1.60;;
18726;SDS011;9492;51.888;5.186;2023-08-06T11:30:38;2.43;;;1.27;;
18726;SDS011;9492;51.888;5.186;2023-08-06T11:33:06;1.40;;;1.30;;
18726;SDS011;9492;51.888;5.186;2023-08-06T11:35:35;2.97;;;1.43;;
18726;SDS011;9492;51.888;5.186;2023-08-06T11:38:01;4.33;;;1.70;;
18726;SDS011;9492;51.888;5.186;2023-08-06T11:40:27;3.10;;;1.70;;
18726;SDS011;9492;51.888;5.186;2023-08-06T11:42:53;2.73;;;1.77;;
18726;SDS011;9492;51.888;5.186;2023-08-06T11:45:22;2.57;;;1.47;;
18726;SDS011;9492;51.888;5.186;2023-08-06T11:47:51;4.73;;;1.57;;
18726;SDS011;9492;51.888;5.186;2023-08-06T11:50:26;2.17;;;1.60;;
18726;SDS011;9492;51.888;5.186;2023-08-06T11:52:56;2.90;;;1.80;;
18726;SDS011;9492;51.888;5.186;2023-08-06T11:55:23;3.73;;;1.90;;
18726;SDS011;9492;51.888;5.186;2023-08-06T11:57:49;1.60;;;1.50;;
18726;SDS011;9492;51.888;5.186;2023-08-06T12:00:16;2.07;;;1.40;;
18726;SDS011;9492;51.888;5.186;2023-08-06T12:02:43;1.60;;;1.27;;
18726;SDS011;9492;51.888;5.186;2023-08-06T12:05:10;1.97;;;1.17;;
18726;SDS011;9492;51.888;5.186;2023-08-06T12:07:37;2.90;;;1.30;;
18726;SDS011;9492;51.888;5.186;2023-08-06T12:10:03;1.30;;;1.20;;
18726;SDS011;9492;51.888;5.186;2023-08-06T12:12:30;1.57;;;1.17;;
18726;SDS011;9492;51.888;5.186;2023-08-06T12:14:56;1.80;;;1.20;;
18726;SDS011;9492;51.888;5.186;2023-08-06T12:17:22;2.60;;;1.30;;
18726;SDS011;9492;51.888;5.186;2023-08-06T12:19:48;3.40;;;1.43;;
18726;SDS011;9492;51.888;5.186;2023-08-06T12:22:15;1.97;;;1.10;;
18726;SDS011;9492;51.888;5.186;2023-08-06T12:24:45;2.80;;;1.60;;
18726;SDS011;9492;51.888;5.186;2023-08-06T12:27:12;1.03;;;0.93;;
18726;SDS011;9492;51.888;5.186;2023-08-06T12:29:45;1.63;;;0.97;;
18726;SDS011;9492;51.888;5.186;2023-08-06T12:32:12;1.33;;;1.13;;
18726;SDS011;9492;51.888;5.186;2023-08-06T12:34:38;2.37;;;1.20;;
18726;SDS011;9492;51.888;5.186;2023-08-06T12:37:05;2.23;;;1.50;;
18726;SDS011;9492;51.888;5.186;2023-08-06T12:39:32;4.90;;;1.40;;
18726;SDS011;9492;51.888;5.186;2023-08-06T12:42:01;2.47;;;1.20;;
18726;SDS011;9492;51.888;5.186;2023-08-06T12:44:28;1.90;;;1.10;;
18726;SDS011;9492;51.888;5.186;2023-08-06T12:46:54;1.80;;;1.20;;
18726;SDS011;9492;51.888;5.186;2023-08-06T12:49:20;1.27;;;1.17;;
18726;SDS011;9492;51.888;5.186;2023-08-06T12:51:46;1.00;;;1.00;;
18726;SDS011;9492;51.888;5.186;2023-08-06T12:54:12;2.70;;;1.10;;
18726;SDS011;9492;51.888;5.186;2023-08-06T12:56:38;1.50;;;1.03;;
18726;SDS011;9492;51.888;5.186;2023-08-06T12:59:04;2.50;;;0.80;;
18726;SDS011;9492;51.888;5.186;2023-08-06T13:01:30;2.37;;;1.13;;
18726;SDS011;9492;51.888;5.186;2023-08-06T13:03:57;1.10;;;0.73;;
18726;SDS011;9492;51.888;5.186;2023-08-06T13:06:23;1.63;;;1.00;;
18726;SDS011;9492;51.888;5.186;2023-08-06T13:08:49;1.00;;;1.00;;
18726;SDS011;9492;51.888;5.186;2023-08-06T13:11:15;1.03;;;0.80;;
18726;SDS011;9492;51.888;5.186;2023-08-06T13:13:41;1.10;;;1.07;;
18726;SDS011;9492;51.888;5.186;2023-08-06T13:16:07;0.70;;;0.70;;
18726;SDS011;9492;51.888;5.186;2023-08-06T13:18:33;1.73;;;0.70;;
18726;SDS011;9492;51.888;5.186;2023-08-06T13:20:59;1.03;;;0.87;;
18726;SDS011;9492;51.888;5.186;2023-08-06T13:23:25;1.27;;;0.90;;
18726;SDS011;9492;51.888;5.186;2023-08-06T13:25:51;0.70;;;0.70;;
18726;SDS011;9492;51.888;5.186;2023-08-06T13:28:17;1.80;;;1.03;;
18726;SDS011;9492;51.888;5.186;2023-08-06T13:30:43;1.27;;;0.70;;
18726;SDS011;9492;51.888;5.186;2023-08-06T13:33:09;1.40;;;0.70;;
18726;SDS011;9492;51.888;5.186;2023-08-06T13:35:35;1.67;;;0.70;;
18726;SDS011;9492;51.888;5.186;2023-08-06T13:38:01;1.53;;;0.90;;
18726;SDS011;9492;51.888;5.186;2023-08-06T13:40:32;1.53;;;0.70;;
18726;SDS011;9492;51.888;5.186;2023-08-06T13:42:58;1.20;;;0.90;;
18726;SDS011;9492;51.888;5.186;2023-08-06T13:45:24;1.50;;;0.73;;
18726;SDS011;9492;51.888;5.186;2023-08-06T13:47:50;1.37;;;0.97;;
18726;SDS011;9492;51.888;5.186;2023-08-06T13:50:16;2.53;;;0.80;;
18726;SDS011;9492;51.888;5.186;2023-08-06T13:52:42;0.77;;;0.70;;
18726;SDS011;9492;51.888;5.186;2023-08-06T13:55:08;2.20;;;0.53;;
18726;SDS011;9492;51.888;5.186;2023-08-06T13:57:34;0.80;;;0.80;;
18726;SDS011;9492;51.888;5.186;2023-08-06T14:00:00;0.63;;;0.60;;
18726;SDS011;9492;51.888;5.186;2023-08-06T14:02:27;1.27;;;0.80;;
18726;SDS011;9492;51.888;5.186;2023-08-06T14:04:53;0.50;;;0.50;;
18726;SDS011;9492;51.888;5.186;2023-08-06T14:07:19;0.70;;;0.60;;
18726;SDS011;9492;51.888;5.186;2023-08-06T14:09:45;0.70;;;0.70;;
18726;SDS011;9492;51.888;5.186;2023-08-06T14:12:12;0.80;;;0.80;;
18726;SDS011;9492;51.888;5.186;2023-08-06T14:14:38;0.70;;;0.70;;
18726;SDS011;9492;51.888;5.186;2023-08-06T14:17:04;0.70;;;0.60;;
18726;SDS011;9492;51.888;5.186;2023-08-06T14:19:30;2.40;;;1.27;;
18726;SDS011;9492;51.888;5.186;2023-08-06T14:21:56;1.10;;;1.00;;
18726;SDS011;9492;51.888;5.186;2023-08-06T14:24:22;3.43;;;0.90;;
18726;SDS011;9492;51.888;5.186;2023-08-06T14:26:48;1.33;;;0.80;;
18726;SDS011;9492;51.888;5.186;2023-08-06T14:29:14;1.40;;;0.70;;
18726;SDS011;9492;51.888;5.186;2023-08-06T14:31:40;0.70;;;0.70;;
18726;SDS011;9492;51.888;5.186;2023-08-06T14:34:07;1.53;;;0.90;;
18726;SDS011;9492;51.888;5.186;2023-08-06T14:36:33;1.13;;;0.80;;
18726;SDS011;9492;51.888;5.186;2023-08-06T14:38:59;2.50;;;0.90;;
18726;SDS011;9492;51.888;5.186;2023-08-06T14:41:25;2.60;;;0.90;;
18726;SDS011;9492;51.888;5.186;2023-08-06T14:43:51;3.20;;;0.80;;
18726;SDS011;9492;51.888;5.186;2023-08-06T14:46:18;1.30;;;1.03;;
18726;SDS011;9492;51.888;5.186;2023-08-06T14:48:44;1.53;;;0.70;;
18726;SDS011;9492;51.888;5.186;2023-08-06T14:51:10;0.77;;;0.73;;
18726;SDS011;9492;51.888;5.186;2023-08-06T14:53:35;2.90;;;1.10;;
18726;SDS011;9492;51.888;5.186;2023-08-06T14:56:02;1.67;;;1.00;;
18726;SDS011;9492;51.888;5.186;2023-08-06T14:58:28;1.67;;;0.93;;
18726;SDS011;9492;51.888;5.186;2023-08-06T15:00:54;1.43;;;0.70;;
18726;SDS011;9492;51.888;5.186;2023-08-06T15:03:20;3.77;;;1.00;;
18726;SDS011;9492;51.888;5.186;2023-08-06T15:05:49;2.63;;;0.97;;